createdAt,value
2018-05-02T00:01:14.091Z,5.67
2018-05-02T00:03:42.646Z,5.53
2018-05-02T00:06:11.207Z,5.40
2018-05-02T00:08:39.768Z,5.73
2018-05-02T00:11:08.129Z,5.47
2018-05-02T00:13:36.700Z,5.10
2018-05-02T00:16:06.045Z,5.93
2018-05-02T00:18:34.602Z,5.93
2018-05-02T00:21:03.188Z,5.13
2018-05-02T00:23:31.741Z,6.93
2018-05-02T00:26:00.285Z,5.47
2018-05-02T00:28:28.849Z,6.20
2018-05-02T00:30:57.440Z,6.37
2018-05-02T00:33:25.995Z,6.40
2018-05-02T00:35:54.552Z,6.13
2018-05-02T00:38:23.109Z,6.13
2018-05-02T00:40:52.485Z,6.67
2018-05-02T00:43:20.827Z,7.07
2018-05-02T00:45:49.384Z,6.57
2018-05-02T00:48:17.996Z,6.13
2018-05-02T00:50:46.557Z,6.53
2018-05-02T00:53:15.111Z,6.00
2018-05-02T00:55:43.659Z,6.73
2018-05-02T00:58:11.981Z,6.23
2018-05-02T01:00:40.585Z,6.50
2018-05-02T01:03:09.148Z,6.27
2018-05-02T01:05:37.743Z,7.20
2018-05-02T01:08:06.071Z,7.33
2018-05-02T01:10:34.675Z,7.93
2018-05-02T01:13:03.270Z,7.40
2018-05-02T01:15:32.027Z,7.50
2018-05-02T01:18:00.627Z,7.63
2018-05-02T01:20:29.174Z,7.00
2018-05-02T01:22:57.759Z,8.23
2018-05-02T01:25:26.028Z,7.97
2018-05-02T01:27:54.623Z,8.27
2018-05-02T01:30:23.215Z,7.73
2018-05-02T01:32:51.774Z,7.50
2018-05-02T01:35:20.324Z,7.83
2018-05-02T01:37:48.871Z,7.43
2018-05-02T01:40:17.428Z,7.67
2018-05-02T01:42:46.029Z,7.97
2018-05-02T01:45:14.587Z,7.93
2018-05-02T01:47:43.182Z,7.80
2018-05-02T01:50:11.730Z,8.27
2018-05-02T01:52:40.278Z,8.13
2018-05-02T01:55:08.876Z,8.40
2018-05-02T01:57:37.437Z,8.53
2018-05-02T02:00:06.298Z,8.53
2018-05-02T02:02:34.859Z,8.10
2018-05-02T02:05:03.451Z,8.90
2018-05-02T02:07:31.433Z,8.57
2018-05-02T02:09:59.995Z,9.40
2018-05-02T02:12:28.260Z,9.33
2018-05-02T02:14:56.611Z,8.37
2018-05-02T02:17:25.166Z,9.50
2018-05-02T02:19:53.730Z,8.73
2018-05-02T02:22:22.295Z,9.67
2018-05-02T02:24:50.856Z,8.13
2018-05-02T02:27:19.451Z,9.17
2018-05-02T02:29:48.011Z,8.70
2018-05-02T02:32:16.595Z,9.37
2018-05-02T02:34:45.792Z,8.60
2018-05-02T02:37:14.409Z,8.80
2018-05-02T02:39:42.983Z,9.63
2018-05-02T02:42:11.545Z,9.27
2018-05-02T02:44:40.125Z,9.03
2018-05-02T02:47:08.727Z,9.47
2018-05-02T02:49:37.279Z,8.40
2018-05-02T02:52:05.832Z,9.07
2018-05-02T02:54:34.217Z,10.07
2018-05-02T02:57:02.791Z,8.53
2018-05-02T02:59:31.344Z,9.87
2018-05-02T03:01:59.906Z,9.13
2018-05-02T03:04:28.476Z,9.40
2018-05-02T03:06:57.039Z,9.07
2018-05-02T03:09:25.617Z,9.47
2018-05-02T03:11:54.223Z,9.47
2018-05-02T03:14:22.816Z,9.13
2018-05-02T03:16:51.445Z,9.03
2018-05-02T03:19:20.032Z,9.00
2018-05-02T03:21:48.642Z,9.37
2018-05-02T03:24:17.220Z,9.67
2018-05-02T03:26:45.829Z,9.07
2018-05-02T03:29:14.435Z,9.13
2018-05-02T03:31:43.108Z,8.43
2018-05-02T03:34:11.673Z,9.93
2018-05-02T03:36:40.285Z,9.30
2018-05-02T03:39:08.855Z,8.83
2018-05-02T03:41:37.425Z,9.50
2018-05-02T03:44:06.018Z,8.77
2018-05-02T03:46:34.592Z,8.80
2018-05-02T03:49:03.192Z,8.97
2018-05-02T03:51:31.745Z,9.13
2018-05-02T03:54:00.347Z,8.30
2018-05-02T03:56:28.896Z,9.20
2018-05-02T03:58:57.452Z,9.83
2018-05-02T04:01:37.151Z,8.50
2018-05-02T04:04:16.847Z,10.17
2018-05-02T04:09:53.715Z,9.30
2018-05-02T04:12:22.079Z,8.90
2018-05-02T04:14:50.642Z,9.43
2018-05-02T04:17:19.235Z,9.80
2018-05-02T04:19:47.812Z,10.03
2018-05-02T04:22:16.375Z,9.43
2018-05-02T04:24:44.985Z,10.80
2018-05-02T04:27:13.552Z,10.30
2018-05-02T04:29:42.186Z,10.37
2018-05-02T04:32:10.955Z,10.60
2018-05-02T04:34:39.536Z,11.20
2018-05-02T04:37:08.099Z,9.93
2018-05-02T04:39:36.699Z,10.53
2018-05-02T04:42:05.291Z,10.00
2018-05-02T04:44:33.886Z,10.37
2018-05-02T04:47:02.200Z,9.73
2018-05-02T04:49:30.811Z,10.00
2018-05-02T04:51:59.385Z,9.03
2018-05-02T04:54:27.959Z,8.57
2018-05-02T04:56:56.520Z,8.23
2018-05-02T04:59:25.100Z,8.73
2018-05-02T05:01:53.866Z,9.20
2018-05-02T05:04:22.417Z,9.03
2018-05-02T05:06:50.988Z,8.70
2018-05-02T05:09:19.539Z,8.30
2018-05-02T05:11:48.157Z,7.97
2018-05-02T05:14:16.391Z,7.63
2018-05-02T05:16:44.943Z,8.00
2018-05-02T05:19:13.499Z,7.70
2018-05-02T05:21:42.173Z,8.27
2018-05-02T05:24:11.461Z,8.17
2018-05-02T05:26:40.025Z,8.80
2018-05-02T05:29:08.629Z,9.00
2018-05-02T05:31:37.179Z,8.70
2018-05-02T05:34:05.407Z,8.63
2018-05-02T05:36:33.958Z,8.20
2018-05-02T05:39:03.152Z,8.50
2018-05-02T05:41:31.765Z,8.60
2018-05-02T05:44:00.324Z,8.83
2018-05-02T05:46:28.915Z,9.07
2018-05-02T05:48:57.479Z,8.17
2018-05-02T05:51:26.038Z,8.67
2018-05-02T05:53:54.678Z,9.40
2018-05-02T05:56:23.397Z,10.20
2018-05-02T05:58:51.994Z,10.03
2018-05-02T06:01:20.596Z,9.83
2018-05-02T06:03:49.229Z,9.93
2018-05-02T06:06:17.846Z,9.27
2018-05-02T06:08:46.412Z,8.97
2018-05-02T06:11:14.990Z,10.90
2018-05-02T06:13:43.567Z,9.50
2018-05-02T06:16:12.124Z,9.83
2018-05-02T06:18:40.710Z,9.23
2018-05-02T06:21:09.455Z,9.97
2018-05-02T06:23:38.031Z,9.30
2018-05-02T06:26:06.649Z,9.13
2018-05-02T06:28:35.348Z,9.97
2018-05-02T06:31:03.977Z,9.67
2018-05-02T06:33:32.595Z,9.17
2018-05-02T06:36:01.169Z,9.27
2018-05-02T06:38:29.727Z,8.40
2018-05-02T06:40:58.302Z,8.10
2018-05-02T06:43:26.916Z,9.07
2018-05-02T06:45:55.677Z,8.73
2018-05-02T06:48:24.087Z,9.00
2018-05-02T06:50:52.704Z,8.03
2018-05-02T06:53:21.275Z,8.37
2018-05-02T06:55:49.648Z,8.90
2018-05-02T06:58:18.209Z,8.30
2018-05-02T07:00:46.578Z,8.40
2018-05-02T07:03:15.136Z,8.43
2018-05-02T07:05:43.835Z,9.33
2018-05-02T07:08:12.394Z,8.63
2018-05-02T07:10:41.307Z,8.50
2018-05-02T07:13:09.933Z,8.90
2018-05-02T07:15:38.536Z,9.47
2018-05-02T07:18:07.153Z,9.17
2018-05-02T07:20:35.758Z,9.90
2018-05-02T07:23:04.354Z,9.40
2018-05-02T07:25:32.919Z,9.00
2018-05-02T07:28:01.533Z,9.00
2018-05-02T07:30:30.160Z,9.10
2018-05-02T07:32:58.849Z,9.30
2018-05-02T07:35:27.603Z,8.83
2018-05-02T07:37:56.171Z,8.83
2018-05-02T07:40:24.775Z,8.90
2018-05-02T07:42:53.527Z,9.27
2018-05-02T07:45:22.132Z,9.97
2018-05-02T07:47:50.730Z,9.07
2018-05-02T07:50:19.296Z,9.13
2018-05-02T07:52:47.872Z,9.70
2018-05-02T07:55:16.510Z,10.00
2018-05-02T07:57:45.127Z,8.80
2018-05-02T08:00:13.799Z,9.07
2018-05-02T08:02:42.377Z,9.63
2018-05-02T08:05:11.184Z,8.70
2018-05-02T08:07:39.794Z,9.50
2018-05-02T08:10:08.428Z,9.90
2018-05-02T08:12:37.088Z,8.30
2018-05-02T08:15:04.972Z,8.50
2018-05-02T08:17:33.535Z,7.90
2018-05-02T08:20:02.124Z,7.47
2018-05-02T08:22:30.695Z,8.30
2018-05-02T08:25:00.412Z,6.43
2018-05-02T08:27:30.967Z,6.83
2018-05-02T08:29:59.935Z,7.33
2018-05-02T08:32:28.500Z,6.83
2018-05-02T08:34:57.092Z,6.13
2018-05-02T08:37:25.668Z,7.20
2018-05-02T08:39:54.235Z,6.40
2018-05-02T08:42:22.802Z,5.73
2018-05-02T08:44:51.379Z,5.50
2018-05-02T08:47:19.935Z,6.17
2018-05-02T08:49:48.516Z,6.07
2018-05-02T08:52:17.277Z,5.60
2018-05-02T08:54:45.846Z,4.97
2018-05-02T08:57:14.427Z,4.53
2018-05-02T08:59:42.987Z,4.43
2018-05-02T09:02:11.543Z,4.30
2018-05-02T09:04:40.103Z,4.43
2018-05-02T09:07:08.662Z,4.57
2018-05-02T09:09:37.228Z,4.60
2018-05-02T09:12:05.830Z,4.00
2018-05-02T09:14:34.374Z,3.93
2018-05-02T09:17:02.931Z,4.17
2018-05-02T09:19:31.486Z,4.20
2018-05-02T09:22:00.068Z,4.20
2018-05-02T09:24:28.646Z,4.33
2018-05-02T09:26:57.234Z,4.20
2018-05-02T09:29:25.799Z,4.47
2018-05-02T09:31:54.367Z,4.37
2018-05-02T09:34:23.120Z,4.93
2018-05-02T09:36:51.685Z,4.80
2018-05-02T09:39:20.253Z,5.37
2018-05-02T09:41:48.811Z,4.93
2018-05-02T09:44:17.439Z,6.00
2018-05-02T09:46:45.999Z,4.73
2018-05-02T09:49:14.581Z,11.97
2018-05-02T09:51:43.156Z,5.30
2018-05-02T09:54:11.744Z,4.77
2018-05-02T09:56:40.343Z,4.80
2018-05-02T09:59:08.916Z,4.10
2018-05-02T10:01:37.463Z,4.30
2018-05-02T10:04:06.032Z,4.60
2018-05-02T10:06:34.593Z,5.10
2018-05-02T10:09:03.163Z,5.10
2018-05-02T10:11:31.763Z,5.30
2018-05-02T10:14:00.397Z,4.70
2018-05-02T10:16:28.981Z,4.43
2018-05-02T10:18:57.617Z,4.30
2018-05-02T10:21:26.223Z,4.37
2018-05-02T10:23:54.793Z,5.07
2018-05-02T10:26:23.423Z,6.50
2018-05-02T10:28:52.197Z,9.17
2018-05-02T10:31:20.793Z,8.50
2018-05-02T10:33:49.405Z,4.63
2018-05-02T10:36:17.981Z,5.37
2018-05-02T10:38:46.562Z,4.90
2018-05-02T10:41:15.135Z,4.80
2018-05-02T10:43:43.694Z,5.10
2018-05-02T10:46:12.266Z,5.23
2018-05-02T10:48:40.917Z,4.47
2018-05-02T10:51:09.523Z,4.97
2018-05-02T10:53:38.163Z,5.10
2018-05-02T10:56:06.770Z,5.20
2018-05-02T10:58:35.944Z,8.30
2018-05-02T11:01:04.205Z,6.50
2018-05-02T11:03:32.911Z,6.27
2018-05-02T11:06:01.149Z,5.00
2018-05-02T11:08:30.571Z,6.27
2018-05-02T11:10:59.185Z,4.93
2018-05-02T11:13:27.783Z,4.90
2018-05-02T11:15:57.707Z,5.10
2018-05-02T11:18:26.328Z,5.23
2018-05-02T11:20:54.907Z,5.13
2018-05-02T11:23:23.478Z,5.43
2018-05-02T11:25:52.033Z,4.80
2018-05-02T11:28:20.715Z,5.70
2018-05-02T11:30:49.449Z,5.43
2018-05-02T11:33:18.050Z,5.40
2018-05-02T11:35:47.441Z,4.67
2018-05-02T11:38:16.052Z,4.40
2018-05-02T11:40:44.642Z,4.73
2018-05-02T11:43:13.204Z,4.47
2018-05-02T11:45:42.279Z,4.67
2018-05-02T11:48:10.900Z,4.57
2018-05-02T11:50:39.460Z,4.53
2018-05-02T11:53:08.015Z,4.80
2018-05-02T11:55:36.596Z,4.60
2018-05-02T11:58:05.226Z,4.30
2018-05-02T12:00:33.832Z,4.07
2018-05-02T12:03:02.432Z,4.83
2018-05-02T12:05:31.014Z,4.47
2018-05-02T12:07:59.588Z,4.47
2018-05-02T12:10:28.162Z,4.07
2018-05-02T12:12:56.748Z,4.30
2018-05-02T12:15:25.357Z,4.10
2018-05-02T12:17:53.924Z,4.33
2018-05-02T12:20:22.477Z,4.77
2018-05-02T12:22:51.077Z,4.20
2018-05-02T12:25:19.631Z,3.77
2018-05-02T12:27:48.264Z,4.27
2018-05-02T12:30:17.024Z,4.47
2018-05-02T12:32:45.644Z,3.87
2018-05-02T12:35:14.199Z,3.77
2018-05-02T12:37:42.758Z,3.87
2018-05-02T12:40:11.307Z,3.53
2018-05-02T12:42:39.862Z,3.80
2018-05-02T12:45:08.451Z,3.30
2018-05-02T12:47:37.056Z,4.13
2018-05-02T12:50:05.618Z,3.23
2018-05-02T12:52:34.197Z,5.30
2018-05-02T12:55:02.760Z,4.00
2018-05-02T12:57:31.318Z,5.40
2018-05-02T12:59:59.925Z,3.60
2018-05-02T13:02:28.519Z,3.80
2018-05-02T13:04:57.236Z,3.10
2018-05-02T13:07:25.800Z,3.40
2018-05-02T13:09:54.421Z,2.90
2018-05-02T13:12:23.008Z,3.20
2018-05-02T13:14:51.577Z,3.50
2018-05-02T13:17:20.134Z,3.37
2018-05-02T13:19:52.519Z,3.70
2018-05-02T13:22:21.188Z,4.27
2018-05-02T13:24:49.967Z,3.13
2018-05-02T13:27:19.072Z,2.83
2018-05-02T13:29:47.615Z,2.83
2018-05-02T13:32:16.167Z,2.60
2018-05-02T13:34:44.757Z,2.90
2018-05-02T13:37:13.317Z,2.90
2018-05-02T13:39:41.871Z,3.00
2018-05-02T13:42:10.471Z,3.37
2018-05-02T13:44:39.082Z,2.80
2018-05-02T13:47:07.645Z,2.90
2018-05-02T13:49:36.203Z,2.83
2018-05-02T13:52:04.759Z,2.80
2018-05-02T13:54:33.616Z,2.90
2018-05-02T13:57:02.194Z,3.30
2018-05-02T13:59:30.828Z,4.47
2018-05-02T14:01:59.396Z,5.57
2018-05-02T14:04:29.020Z,3.90
2018-05-02T14:06:57.576Z,4.60
2018-05-02T14:09:26.173Z,3.63
2018-05-02T14:11:54.825Z,5.00
2018-05-02T14:14:23.474Z,4.23
2018-05-02T14:16:52.049Z,4.10
2018-05-02T14:19:20.604Z,4.23
2018-05-02T14:21:49.188Z,4.50
2018-05-02T14:24:17.754Z,4.77
2018-05-02T14:26:46.426Z,4.73
2018-05-02T14:29:14.985Z,4.67
2018-05-02T14:31:43.547Z,4.43
2018-05-02T14:34:12.098Z,4.90
2018-05-02T14:36:40.665Z,4.00
2018-05-02T14:39:09.234Z,4.50
2018-05-02T14:41:37.788Z,4.30
2018-05-02T14:44:06.413Z,4.23
2018-05-02T14:46:34.969Z,4.50
2018-05-02T14:49:03.199Z,4.13
2018-05-02T14:51:31.776Z,6.03
2018-05-02T14:54:00.366Z,4.23
2018-05-02T14:56:28.936Z,4.43
2018-05-02T14:58:57.528Z,3.83
2018-05-02T15:01:26.172Z,4.17
2018-05-02T15:03:54.860Z,4.17
2018-05-02T15:06:23.412Z,4.90
2018-05-02T15:08:51.973Z,4.03
2018-05-02T15:11:20.549Z,4.90
2018-05-02T15:13:49.132Z,5.33
2018-05-02T15:16:17.684Z,4.60
2018-05-02T15:18:46.255Z,4.63
2018-05-02T15:21:14.888Z,3.20
2018-05-02T15:23:43.457Z,3.90
2018-05-02T15:26:12.059Z,4.43
2018-05-02T15:28:40.640Z,4.57
2018-05-02T15:31:09.238Z,3.40
2018-05-02T15:33:37.825Z,3.03
2018-05-02T15:36:06.439Z,7.20
2018-05-02T15:38:34.994Z,3.17
2018-05-02T15:41:03.568Z,3.47
2018-05-02T15:43:32.155Z,4.50
2018-05-02T15:46:00.723Z,4.77
2018-05-02T15:48:29.293Z,3.50
2018-05-02T15:50:57.854Z,3.60
2018-05-02T15:53:26.411Z,3.10
2018-05-02T15:55:55.035Z,4.23
2018-05-02T15:58:23.788Z,3.70
2018-05-02T16:00:52.472Z,4.00
2018-05-02T16:03:21.037Z,3.43
2018-05-02T16:05:49.619Z,3.33
2018-05-02T16:08:18.165Z,4.10
2018-05-02T16:10:46.799Z,3.40
2018-05-02T16:13:16.155Z,3.30
2018-05-02T16:15:44.703Z,4.13
2018-05-02T16:18:13.265Z,4.80
2018-05-02T16:20:41.887Z,4.47
2018-05-02T16:23:10.449Z,4.00
2018-05-02T16:25:39.864Z,3.17
2018-05-02T16:28:08.644Z,3.20
2018-05-02T16:30:37.284Z,3.80
2018-05-02T16:33:05.839Z,4.13
2018-05-02T16:35:34.827Z,4.60
2018-05-02T16:38:03.455Z,4.90
2018-05-02T16:40:33.150Z,3.53
2018-05-02T16:43:01.855Z,4.50
2018-05-02T16:45:30.470Z,4.90
2018-05-02T16:48:00.346Z,4.97
2018-05-02T16:50:29.034Z,4.20
2018-05-02T16:52:57.585Z,3.83
2018-05-02T16:55:26.190Z,5.20
2018-05-02T16:57:54.807Z,4.10
2018-05-02T17:00:23.390Z,4.20
2018-05-02T17:02:51.988Z,4.07
2018-05-02T17:05:20.544Z,4.00
2018-05-02T17:07:48.853Z,4.37
2018-05-02T17:10:17.549Z,4.27
2018-05-02T17:12:46.139Z,4.17
2018-05-02T17:15:14.694Z,4.60
2018-05-02T17:17:43.364Z,3.73
2018-05-02T17:20:12.061Z,6.27
2018-05-02T17:22:40.889Z,6.57
2018-05-02T17:25:09.471Z,6.50
2018-05-02T17:27:38.032Z,5.17
2018-05-02T17:30:06.644Z,4.23
2018-05-02T17:32:35.409Z,4.70
2018-05-02T17:35:03.881Z,4.97
2018-05-02T17:37:32.655Z,5.80
2018-05-02T17:40:01.231Z,5.60
2018-05-02T17:42:29.794Z,5.43
2018-05-02T17:44:58.382Z,5.57
2018-05-02T17:47:26.945Z,5.57
2018-05-02T17:49:55.586Z,5.73
2018-05-02T17:52:24.153Z,5.77
2018-05-02T17:54:52.727Z,5.67
2018-05-02T17:57:22.104Z,6.00
2018-05-02T17:59:50.776Z,6.00
2018-05-02T18:02:19.372Z,5.93
2018-05-02T18:04:47.953Z,6.10
2018-05-02T18:07:16.519Z,6.07
2018-05-02T18:09:45.136Z,6.00
2018-05-02T18:12:13.700Z,5.50
2018-05-02T18:14:42.327Z,5.70
2018-05-02T18:17:10.877Z,5.77
2018-05-02T18:19:39.513Z,6.33
2018-05-02T18:22:08.073Z,6.70
2018-05-02T18:24:36.673Z,8.23
2018-05-02T18:27:05.928Z,7.57
2018-05-02T18:29:34.521Z,6.43
2018-05-02T18:32:03.088Z,6.57
2018-05-02T18:34:31.707Z,5.40
2018-05-02T18:37:05.132Z,5.63
2018-05-02T18:39:39.653Z,5.13
2018-05-02T18:42:08.332Z,5.23
2018-05-02T18:44:36.900Z,5.43
2018-05-02T18:47:05.694Z,5.90
2018-05-02T18:49:34.232Z,5.53
2018-05-02T18:52:02.851Z,6.20
2018-05-02T18:54:31.495Z,5.27
2018-05-02T18:57:00.137Z,6.00
2018-05-02T18:59:28.858Z,5.73
2018-05-02T19:01:57.488Z,6.80
2018-05-02T19:04:26.095Z,5.93
2018-05-02T19:06:54.711Z,6.60
2018-05-02T19:09:23.263Z,6.03
2018-05-02T19:11:51.834Z,5.73
2018-05-02T19:14:20.391Z,5.67
2018-05-02T19:16:49.112Z,5.57
2018-05-02T19:19:22.990Z,5.43
2018-05-02T19:21:51.587Z,6.90
2018-05-02T19:24:20.846Z,5.70
2018-05-02T19:26:49.420Z,6.13
2018-05-02T19:29:17.990Z,5.53
2018-05-02T19:31:52.024Z,5.03
2018-05-02T19:34:20.611Z,5.00
2018-05-02T19:36:49.214Z,5.53
2018-05-02T19:39:17.778Z,5.57
2018-05-02T19:41:51.701Z,5.83
2018-05-02T19:44:20.338Z,6.03
2018-05-02T19:46:49.388Z,5.30
2018-05-02T19:49:17.956Z,5.37
2018-05-02T19:51:51.794Z,5.83
2018-05-02T19:54:20.358Z,6.13
2018-05-02T19:56:49.476Z,5.70
2018-05-02T19:59:18.027Z,5.63
2018-05-02T20:01:51.942Z,5.80
2018-05-02T20:04:20.499Z,6.10
2018-05-02T20:06:49.067Z,6.37
2018-05-02T20:09:23.182Z,6.30
2018-05-02T20:14:56.842Z,6.00
2018-05-02T20:17:25.431Z,5.90
2018-05-02T20:19:54.000Z,6.20
2018-05-02T20:22:22.575Z,6.57
2018-05-02T20:24:51.179Z,6.60
2018-05-02T20:27:19.760Z,6.90
2018-05-02T20:29:48.360Z,7.27
2018-05-02T20:32:16.949Z,7.00
2018-05-02T20:34:45.519Z,7.10
2018-05-02T20:37:15.015Z,7.00
2018-05-02T20:39:43.612Z,7.43
2018-05-02T20:42:12.222Z,7.17
2018-05-02T20:44:40.794Z,7.27
2018-05-02T20:47:09.046Z,7.03
2018-05-02T20:49:37.595Z,7.87
2018-05-02T20:52:06.185Z,7.60
2018-05-02T20:54:34.755Z,7.50
2018-05-02T20:57:03.329Z,8.47
2018-05-02T20:59:31.913Z,7.80
2018-05-02T21:02:00.486Z,7.63
2018-05-02T21:04:29.060Z,8.97
2018-05-02T21:06:57.613Z,9.07
2018-05-02T21:09:26.164Z,8.47
2018-05-02T21:11:54.775Z,9.97
2018-05-02T21:14:23.344Z,9.23
2018-05-02T21:16:52.100Z,9.23
2018-05-02T21:19:20.664Z,9.13
2018-05-02T21:21:49.222Z,9.00
2018-05-02T21:24:17.783Z,9.10
2018-05-02T21:26:46.355Z,8.73
2018-05-02T21:29:14.922Z,9.73
2018-05-02T21:31:43.487Z,8.97
2018-05-02T21:34:12.039Z,9.07
2018-05-02T21:36:40.615Z,8.60
2018-05-02T21:39:09.176Z,8.67
2018-05-02T21:41:37.788Z,8.60
2018-05-02T21:44:06.339Z,8.87
2018-05-02T21:46:34.904Z,8.70
2018-05-02T21:49:03.488Z,8.53
2018-05-02T21:51:32.043Z,8.97
2018-05-02T21:54:00.605Z,8.80
2018-05-02T21:56:29.203Z,8.77
2018-05-02T21:58:57.756Z,9.10
2018-05-02T22:01:26.338Z,8.90
2018-05-02T22:03:54.895Z,8.77
2018-05-02T22:06:23.505Z,9.27
2018-05-02T22:08:52.059Z,9.33
2018-05-02T22:11:20.661Z,8.40
2018-05-02T22:13:49.227Z,8.90
2018-05-02T22:16:17.780Z,8.53
2018-05-02T22:18:46.381Z,7.87
2018-05-02T22:21:14.939Z,8.17
2018-05-02T22:23:43.495Z,8.30
2018-05-02T22:26:12.055Z,7.90
2018-05-02T22:28:40.648Z,8.90
2018-05-02T22:31:09.249Z,8.27
2018-05-02T22:33:37.817Z,8.27
2018-05-02T22:36:06.514Z,8.10
2018-05-02T22:38:35.087Z,7.87
2018-05-02T22:41:03.681Z,7.70
2018-05-02T22:43:32.243Z,7.70
2018-05-02T22:46:02.715Z,8.43
2018-05-02T22:48:31.266Z,8.03
2018-05-02T22:50:59.835Z,8.30
2018-05-02T22:53:28.388Z,8.07
2018-05-02T22:55:56.987Z,8.30
2018-05-02T22:58:25.591Z,7.90
2018-05-02T23:00:54.222Z,7.80
2018-05-02T23:03:22.774Z,8.60
2018-05-02T23:05:51.329Z,8.70
2018-05-02T23:08:19.942Z,8.27
2018-05-02T23:10:48.502Z,8.00
2018-05-02T23:13:17.065Z,7.37
2018-05-02T23:15:45.708Z,8.63
2018-05-02T23:18:14.335Z,8.20
2018-05-02T23:20:43.032Z,8.33
2018-05-02T23:23:11.587Z,8.47
2018-05-02T23:25:40.173Z,8.57
2018-05-02T23:28:08.736Z,8.20
2018-05-02T23:30:37.340Z,8.20
2018-05-02T23:33:05.910Z,8.23
2018-05-02T23:35:34.506Z,8.40
2018-05-02T23:38:03.060Z,8.17
2018-05-02T23:40:31.678Z,7.87
2018-05-02T23:43:00.241Z,8.37
2018-05-02T23:45:28.811Z,9.10
2018-05-02T23:47:57.377Z,8.57
2018-05-02T23:50:25.935Z,8.80
2018-05-02T23:52:54.542Z,8.47
2018-05-02T23:55:23.105Z,9.17
2018-05-02T23:57:51.676Z,8.07
